createdAt,value
2023-02-25T00:00:25.944Z,69.98
2023-02-25T00:05:25.890Z,70.02
2023-02-25T00:10:25.894Z,70.02
2023-02-25T00:15:25.737Z,70.07
2023-02-25T00:20:25.656Z,70.09
2023-02-25T00:25:25.628Z,70.11
2023-02-25T00:30:25.572Z,70.16
2023-02-25T00:35:25.495Z,70.22
2023-02-25T00:40:25.406Z,70.25
2023-02-25T00:45:25.387Z,70.27
2023-02-25T00:50:25.285Z,70.29
2023-02-25T00:55:25.240Z,70.35
2023-02-25T01:00:25.161Z,70.32
2023-02-25T01:05:44.174Z,70.30
2023-02-25T01:10:36.534Z,70.30
2023-02-25T01:15:36.484Z,70.30
2023-02-25T01:20:36.506Z,70.35
2023-02-25T01:25:36.337Z,70.36
2023-02-25T01:30:36.438Z,70.36
2023-02-25T01:35:36.200Z,70.34
2023-02-25T01:40:36.180Z,70.34
2023-02-25T01:45:36.086Z,70.36
2023-02-25T01:50:36.048Z,70.33
2023-02-25T01:55:35.960Z,70.33
2023-02-25T02:00:36.073Z,70.34
2023-02-25T02:05:35.836Z,70.29
2023-02-25T02:10:35.798Z,70.29
2023-02-25T02:15:35.720Z,70.29
2023-02-25T02:20:35.688Z,70.31
2023-02-25T02:25:35.582Z,70.31
2023-02-25T02:30:35.598Z,70.31
2023-02-25T02:35:35.431Z,70.31
2023-02-25T02:40:35.424Z,70.28
2023-02-25T02:45:35.403Z,70.28
2023-02-25T02:50:35.253Z,70.25
2023-02-25T02:55:35.203Z,70.26
2023-02-25T03:00:35.167Z,70.26
2023-02-25T03:05:35.039Z,70.27
2023-02-25T03:10:35.030Z,70.30
2023-02-25T03:15:34.984Z,70.32
2023-02-25T03:20:36.292Z,70.35
2023-02-25T03:25:34.849Z,70.36
2023-02-25T03:30:34.795Z,70.37
2023-02-25T03:35:34.670Z,70.39
2023-02-25T03:40:34.613Z,70.40
2023-02-25T03:45:34.568Z,70.41
2023-02-25T03:50:34.479Z,70.41
2023-02-25T03:55:34.512Z,70.41
2023-02-25T04:00:34.358Z,70.50
2023-02-25T04:05:34.323Z,70.53
2023-02-25T04:10:34.250Z,70.55
2023-02-25T04:15:34.237Z,70.56
2023-02-25T04:20:34.103Z,70.57
2023-02-25T04:25:34.744Z,70.55
2023-02-25T04:30:34.451Z,70.59
2023-02-25T04:35:33.916Z,70.58
2023-02-25T04:40:33.822Z,70.60
2023-02-25T04:45:33.800Z,70.65
2023-02-25T04:50:33.711Z,70.67
2023-02-25T04:55:33.642Z,70.68
2023-02-25T05:00:33.595Z,70.68
2023-02-25T05:05:33.525Z,70.67
2023-02-25T05:10:33.443Z,70.65
2023-02-25T05:15:47.851Z,70.65
2023-02-25T05:20:40.240Z,70.65
2023-02-25T05:25:40.176Z,70.69
2023-02-25T05:30:40.772Z,70.72
2023-02-25T05:35:40.147Z,70.76
2023-02-25T05:40:39.971Z,70.80
2023-02-25T05:45:39.901Z,70.81
2023-02-25T05:50:39.829Z,70.86
2023-02-25T05:55:39.754Z,70.87
2023-02-25T06:00:39.699Z,70.91
2023-02-25T06:05:39.616Z,70.91
2023-02-25T06:10:39.601Z,70.95
2023-02-25T06:15:39.512Z,70.97
2023-02-25T06:20:39.443Z,70.96
2023-02-25T06:25:39.358Z,70.96
2023-02-25T06:30:39.338Z,70.97
2023-02-25T06:35:39.249Z,71.01
2023-02-25T06:40:39.183Z,71.01
2023-02-25T06:45:39.146Z,70.97
2023-02-25T06:50:39.076Z,70.96
2023-02-25T06:55:38.980Z,70.90
2023-02-25T07:00:38.947Z,70.92
2023-02-25T07:05:38.850Z,70.94
2023-02-25T07:10:38.792Z,70.86
2023-02-25T07:15:38.781Z,70.81
2023-02-25T07:20:38.659Z,70.74
2023-02-25T07:25:38.601Z,70.69
2023-02-25T07:30:38.579Z,70.67
2023-02-25T07:35:38.514Z,70.65
2023-02-25T07:40:38.400Z,70.55
2023-02-25T07:45:38.361Z,70.26
2023-02-25T07:50:38.315Z,70.39
2023-02-25T07:55:38.232Z,70.42
2023-02-25T08:00:38.170Z,70.19
2023-02-25T08:05:38.085Z,70.18
2023-02-25T08:10:38.038Z,70.02
2023-02-25T08:15:38.070Z,70.10
2023-02-25T08:20:37.887Z,69.94
2023-02-25T08:25:37.831Z,70.17
2023-02-25T08:30:37.806Z,70.38
2023-02-25T08:35:37.721Z,70.36
2023-02-25T08:40:37.678Z,70.39
2023-02-25T08:45:37.571Z,70.12
2023-02-25T08:50:37.530Z,69.93
2023-02-25T08:55:37.445Z,69.47
2023-02-25T09:00:37.453Z,68.77
2023-02-25T09:05:37.305Z,67.62
2023-02-25T09:10:49.484Z,65.58
2023-02-25T09:15:38.194Z,64.79
2023-02-25T09:20:37.118Z,64.51
2023-02-25T09:25:37.057Z,62.90
2023-02-25T09:30:37.160Z,62.39
2023-02-25T09:35:36.945Z,61.52
2023-02-25T09:40:36.945Z,45.58
2023-02-25T09:45:36.869Z,43.38
2023-02-25T09:50:36.915Z,37.45
2023-02-25T09:55:36.754Z,36.26
2023-02-25T10:00:36.645Z,40.78
2023-02-25T10:05:36.615Z,37.82
2023-02-25T10:10:36.486Z,45.97
2023-02-25T10:15:36.411Z,52.59
2023-02-25T10:20:36.355Z,55.27
2023-02-25T10:25:36.255Z,57.14
2023-02-25T10:30:36.342Z,58.88
2023-02-25T10:35:36.130Z,60.06
2023-02-25T10:40:36.073Z,60.51
2023-02-25T10:45:36.044Z,59.81
2023-02-25T10:50:45.492Z,59.25
2023-02-25T10:55:36.901Z,60.70
2023-02-25T11:00:35.844Z,61.38
2023-02-25T11:05:35.737Z,61.02
2023-02-25T11:10:35.680Z,60.64
2023-02-25T11:15:44.683Z,60.91
2023-02-25T11:20:36.555Z,60.51
2023-02-25T11:25:35.468Z,59.73
2023-02-25T11:30:35.471Z,54.84
2023-02-25T11:35:35.349Z,44.93
2023-02-25T11:40:35.334Z,41.66
2023-02-25T11:45:35.214Z,46.31
2023-02-25T11:50:35.140Z,50.95
2023-02-25T11:55:35.054Z,51.96
2023-02-25T12:00:35.020Z,44.89
2023-02-25T12:05:35.011Z,40.84
2023-02-25T12:10:34.879Z,51.03
2023-02-25T12:15:34.804Z,55.21
2023-02-25T12:20:34.718Z,56.21
2023-02-25T12:25:34.664Z,56.36
2023-02-25T12:30:34.676Z,56.72
2023-02-25T12:35:34.531Z,54.86
2023-02-25T12:40:34.520Z,47.41
2023-02-25T12:45:34.459Z,49.96
2023-02-25T12:50:34.390Z,51.27
2023-02-25T12:55:34.354Z,52.56
2023-02-25T13:00:34.262Z,51.66
2023-02-25T13:05:34.197Z,53.15
2023-02-25T13:10:34.116Z,53.78
2023-02-25T13:15:34.024Z,53.99
2023-02-25T13:20:33.960Z,54.54
2023-02-25T13:25:33.895Z,54.88
2023-02-25T13:30:33.834Z,55.47
2023-02-25T13:35:33.885Z,56.05
2023-02-25T13:40:33.721Z,55.99
2023-02-25T13:45:33.765Z,56.13
2023-02-25T13:50:33.553Z,56.29
2023-02-25T13:55:33.497Z,56.45
2023-02-25T14:00:33.474Z,57.17
2023-02-25T14:05:33.393Z,57.53
2023-02-25T14:10:33.311Z,54.27
2023-02-25T14:15:33.231Z,52.43
2023-02-25T14:20:33.204Z,51.48
2023-02-25T14:25:33.314Z,51.72
2023-02-25T14:30:33.282Z,50.84
2023-02-25T14:35:32.984Z,50.49
2023-02-25T14:40:32.934Z,52.81
2023-02-25T14:45:32.833Z,54.39
2023-02-25T14:50:32.788Z,54.94
2023-02-25T14:55:32.696Z,54.70
2023-02-25T15:00:32.652Z,54.08
2023-02-25T15:05:32.538Z,54.56
2023-02-25T15:10:32.715Z,54.73
2023-02-25T15:15:32.542Z,54.51
2023-02-25T15:20:32.364Z,55.52
2023-02-25T15:25:32.299Z,55.54
2023-02-25T15:30:32.257Z,55.66
2023-02-25T15:35:32.189Z,55.05
2023-02-25T15:40:32.122Z,54.51
2023-02-25T15:45:32.024Z,54.57
2023-02-25T15:50:31.984Z,54.32
2023-02-25T15:55:31.994Z,54.15
2023-02-25T16:00:31.939Z,54.27
2023-02-25T16:05:31.774Z,54.39
2023-02-25T16:10:31.711Z,54.28
2023-02-25T16:15:31.641Z,54.41
2023-02-25T16:20:31.596Z,54.58
2023-02-25T16:25:31.507Z,54.79
2023-02-25T16:30:32.329Z,55.18
2023-02-25T16:35:31.387Z,55.58
2023-02-25T16:40:31.391Z,55.82
2023-02-25T16:45:31.310Z,55.90
2023-02-25T16:50:31.204Z,55.99
2023-02-25T16:55:31.514Z,55.61
2023-02-25T17:00:31.071Z,55.88
2023-02-25T17:05:30.996Z,56.03
2023-02-25T17:10:30.929Z,56.06
2023-02-25T17:15:30.871Z,56.34
2023-02-25T17:20:30.821Z,56.21
2023-02-25T17:25:30.762Z,56.23
2023-02-25T17:30:30.722Z,56.40
2023-02-25T17:35:30.615Z,56.55
2023-02-25T17:40:30.552Z,56.53
2023-02-25T17:45:32.437Z,56.71
2023-02-25T17:50:30.444Z,56.85
2023-02-25T17:55:30.384Z,57.02
2023-02-25T18:00:30.273Z,57.25
2023-02-25T18:05:31.412Z,57.44
2023-02-25T18:10:30.182Z,57.58
2023-02-25T18:15:30.226Z,57.72
2023-02-25T18:20:30.025Z,57.88
2023-02-25T18:25:30.044Z,58.02
2023-02-25T18:30:29.987Z,58.14
2023-02-25T18:35:29.875Z,58.26
2023-02-25T18:40:30.099Z,58.37
2023-02-25T18:45:29.739Z,58.47
2023-02-25T18:50:29.602Z,58.63
2023-02-25T18:55:29.589Z,58.79
2023-02-25T19:00:29.513Z,58.92
2023-02-25T19:05:29.480Z,58.97
2023-02-25T19:10:29.368Z,59.02
2023-02-25T19:15:29.348Z,59.12
2023-02-25T19:20:29.241Z,59.19
2023-02-25T19:25:29.228Z,59.25
2023-02-25T19:30:29.170Z,59.31
2023-02-25T19:35:29.094Z,59.37
2023-02-25T19:40:29.010Z,59.44
2023-02-25T19:45:28.945Z,59.51
2023-02-25T19:50:28.879Z,59.57
2023-02-25T19:55:28.840Z,59.68
2023-02-25T20:00:28.708Z,59.74
2023-02-25T20:05:28.694Z,59.84
2023-02-25T20:10:28.615Z,59.92
2023-02-25T20:15:28.592Z,59.97
2023-02-25T20:20:28.478Z,60.03
2023-02-25T20:25:28.429Z,60.09
2023-02-25T20:30:28.394Z,60.17
2023-02-25T20:35:28.349Z,60.27
2023-02-25T20:40:28.233Z,60.36
2023-02-25T20:45:28.184Z,60.44
2023-02-25T20:50:28.121Z,60.53
2023-02-25T20:55:28.062Z,60.64
2023-02-25T21:00:28.978Z,60.72
2023-02-25T21:05:27.911Z,60.82
2023-02-25T21:10:27.845Z,60.89
2023-02-25T21:15:28.738Z,60.92
2023-02-25T21:20:27.726Z,60.94
2023-02-25T21:25:27.672Z,61.02
2023-02-25T21:30:27.721Z,61.13
2023-02-25T21:35:27.551Z,61.24
2023-02-25T21:40:27.470Z,61.38
2023-02-25T21:45:27.379Z,61.50
2023-02-25T21:50:27.323Z,61.64
2023-02-25T21:55:27.293Z,61.75
2023-02-25T22:00:27.199Z,61.86
2023-02-25T22:05:27.143Z,61.97
2023-02-25T22:10:27.164Z,62.06
2023-02-25T22:15:27.039Z,62.18
2023-02-25T22:20:27.013Z,62.29
2023-02-25T22:25:26.926Z,62.35
2023-02-25T22:30:26.838Z,62.42
2023-02-25T22:35:27.001Z,62.48
2023-02-25T22:40:26.738Z,62.51
2023-02-25T22:45:26.660Z,62.50
2023-02-25T22:50:26.583Z,62.49
2023-02-25T22:55:26.584Z,62.50
2023-02-25T23:00:26.467Z,62.49
2023-02-25T23:05:26.377Z,62.50
2023-02-25T23:10:26.341Z,62.49
2023-02-25T23:15:26.227Z,62.49
2023-02-25T23:20:26.197Z,62.50
2023-02-25T23:25:26.123Z,62.56
2023-02-25T23:30:26.055Z,62.63
2023-02-25T23:35:26.025Z,62.69
2023-02-25T23:40:25.925Z,62.78
2023-02-25T23:45:25.882Z,62.80
2023-02-25T23:50:25.798Z,62.86
2023-02-25T23:55:25.767Z,62.92
